Time;durP1;ratioP1;P1;durP2;ratioP2;P2;SDS_P1;SDS_P2;PMS_P1;PMS_P2;Temp;Humidity;BMP_temperature;BMP_pressure;BME280_temperature;BME280_humidity;BME280_pressure;Samples;Min_cycle;Max_cycle;Signal;HPM_P1;HPM_P2
2022/11/17 00:00:43;;;;;;;;;;;;;;;15.31;66.66;98552.69;1237897;23;614;-73
2022/11/17 00:01:33;;;;;;;;;;;;;;;15.30;66.77;98551.03;1240519;23;1047;-72
2022/11/17 00:02:24;;;;;;;;;;;;;;;15.30;66.69;98545.66;1266100;23;614;-72
2022/11/17 00:03:14;;;;;;;;;;;;;;;15.28;66.61;98545.84;1265474;23;665;-72
2022/11/17 00:04:05;;;;;;;;;;;;;;;15.29;66.93;98534.09;1265778;23;627;-72
2022/11/17 00:04:55;;;;;;;;;;;;;;;15.29;66.95;98544.00;1265348;23;1950;-73
2022/11/17 00:05:46;;;;;;;;;;;;;;;15.26;66.50;98537.16;1265641;23;673;-73
2022/11/17 00:06:36;;;;;;;;;;;;;;;15.27;66.67;98529.94;1265475;23;607;-72
2022/11/17 00:07:26;;;;;;;;;;;;;;;15.25;66.84;98524.75;1265109;23;615;-72
2022/11/17 00:08:17;;;;;;;;;;;;;;;15.27;66.92;98529.94;1265772;23;678;-72
2022/11/17 00:09:07;;;;;;;;;;;;;;;15.27;66.54;98529.94;1265392;23;631;-72
2022/11/17 00:09:58;;;;;;;;;;;;;;;15.25;66.72;98521.25;1260827;23;689;-73
2022/11/17 00:10:48;;;;;;;;;;;;;;;15.27;66.81;98521.88;1261762;23;645;-72
2022/11/17 00:15:06;;;;;;;;;;;;;;;15.27;66.60;98520.03;1268107;23;661;-72
2022/11/17 00:15:57;;;;;;;;;;;;;;;15.27;66.41;98513.84;1267236;23;720;-73
2022/11/17 00:16:47;;;;;;;;;;;;;;;15.26;66.54;98517.53;1267186;23;629;-72
2022/11/17 00:17:38;;;;;;;;;;;;;;;15.26;66.66;98506.81;1265810;23;630;-72
2022/11/17 00:21:56;;;;;;;;;;;;;;;15.22;66.77;98497.50;1267623;23;653;-72
2022/11/17 00:22:47;;;;;;;;;;;;;;;15.23;66.53;98504.50;1266323;23;781;-72
2022/11/17 00:23:55;;;;;;;;;;;;;;;15.22;66.41;98494.81;1266181;23;748;-72
2022/11/17 00:24:45;;;;;;;;;;;;;;;15.23;66.42;98496.44;1265504;23;658;-72
2022/11/17 00:25:36;;;;;;;;;;;;;;;15.23;66.71;98496.44;1265759;23;645;-72
2022/11/17 00:26:26;;;;;;;;;;;;;;;15.22;66.63;98489.44;1267272;23;911;-73
2022/11/17 00:27:17;;;;;;;;;;;;;;;15.24;66.64;98482.84;1265578;23;735;-72
2022/11/17 00:28:07;;;;;;;;;;;;;;;15.23;66.67;98480.34;1265391;23;674;-72
2022/11/17 00:28:57;;;;;;;;;;;;;;;15.21;66.67;98469.81;1260904;23;606;-73
2022/11/17 00:29:48;;;;;;;;;;;;;;;15.21;66.49;98467.13;1261699;23;697;-72
2022/11/17 00:34:06;;;;;;;;;;;;;;;15.20;66.79;98451.22;1268037;23;649;-73
2022/11/17 00:34:56;;;;;;;;;;;;;;;15.19;66.58;98455.75;1265446;23;598;-73
2022/11/17 00:35:47;;;;;;;;;;;;;;;15.20;66.61;98446.69;1265625;23;666;-72
2022/11/17 00:36:37;;;;;;;;;;;;;;;15.21;66.41;98450.22;1266585;23;584;-73
2022/11/17 00:37:28;;;;;;;;;;;;;;;15.19;66.46;98453.06;1265798;23;669;-72
2022/11/17 00:38:18;;;;;;;;;;;;;;;15.20;66.57;98443.19;1265384;23;748;-73
2022/11/17 00:39:09;;;;;;;;;;;;;;;15.20;66.62;98451.22;1265650;23;677;-74
2022/11/17 00:39:59;;;;;;;;;;;;;;;15.19;66.84;98444.19;1265394;23;716;-73
2022/11/17 00:40:50;;;;;;;;;;;;;;;15.21;66.54;98447.53;1265602;23;886;-71
2022/11/17 00:41:40;;;;;;;;;;;;;;;15.18;66.57;98438.00;1267349;23;618;-71
2022/11/17 00:42:30;;;;;;;;;;;;;;;15.21;66.67;98440.31;1265654;23;693;-71
2022/11/17 00:43:21;;;;;;;;;;;;;;;15.22;66.69;98430.41;1267191;23;669;-72
2022/11/17 00:44:11;;;;;;;;;;;;;;;15.22;66.84;98414.31;1260769;23;665;-72
2022/11/17 00:45:02;;;;;;;;;;;;;;;15.22;66.78;98414.31;1261565;23;1881;-72
2022/11/17 00:45:52;;;;;;;;;;;;;;;15.22;66.82;98406.25;1267255;23;763;-72
2022/11/17 00:46:42;;;;;;;;;;;;;;;15.21;66.50;98401.91;1265558;23;646;-72
2022/11/17 00:47:33;;;;;;;;;;;;;;;15.22;66.54;98403.59;1267284;23;661;-72
2022/11/17 00:48:23;;;;;;;;;;;;;;;15.20;66.75;98409.13;1260758;23;653;-73
2022/11/17 00:49:14;;;;;;;;;;;;;;;15.20;66.63;98397.56;1261573;23;634;-73
2022/11/17 00:50:04;;;;;;;;;;;;;;;15.20;66.56;98397.56;1267250;23;661;-71
2022/11/17 00:50:55;;;;;;;;;;;;;;;15.19;66.80;98396.75;1265014;23;783;-72
2022/11/17 00:51:45;;;;;;;;;;;;;;;15.19;66.77;98398.59;1265488;23;670;-72
2022/11/17 00:52:35;;;;;;;;;;;;;;;15.17;66.59;98389.91;1261009;23;669;-70
2022/11/17 00:53:26;;;;;;;;;;;;;;;15.17;66.86;98384.53;1261980;23;662;-72
2022/11/17 00:54:16;;;;;;;;;;;;;;;15.15;66.67;98365.09;1262877;23;677;-72
2022/11/17 00:55:07;;;;;;;;;;;;;;;15.17;66.72;98379.16;1261312;23;645;-72
2022/11/17 00:55:57;;;;;;;;;;;;;;;15.15;66.72;98359.75;1267344;23;645;-73
2022/11/17 00:56:48;;;;;;;;;;;;;;;15.18;66.55;98370.09;1261157;23;626;-72
2022/11/17 00:57:38;;;;;;;;;;;;;;;15.18;66.56;98372.78;1261893;23;622;-72
2022/11/17 00:58:28;;;;;;;;;;;;;;;15.17;66.65;98365.75;1265828;23;680;-72
2022/11/17 00:59:19;;;;;;;;;;;;;;;15.18;66.80;98367.41;1266158;23;650;-71
2022/11/17 01:00:09;;;;;;;;;;;;;;;15.16;66.59;98351.50;1261006;23;631;-72
2022/11/17 01:01:00;;;;;;;;;;;;;;;15.16;66.60;98351.50;1261880;23;669;-72
2022/11/17 01:01:50;;;;;;;;;;;;;;;15.17;66.49;98352.34;1268545;23;645;-72
2022/11/17 01:02:40;;;;;;;;;;;;;;;15.17;66.52;98349.66;1265720;23;1159;-72
2022/11/17 01:03:31;;;;;;;;;;;;;;;15.18;66.63;98332.53;1266258;23;673;-71
2022/11/17 01:04:21;;;;;;;;;;;;;;;15.17;66.36;98342.44;1265860;23;606;-72
2022/11/17 01:05:12;;;;;;;;;;;;;;;15.16;66.27;98332.72;1265907;23;1893;-73
2022/11/17 01:06:03;;;;;;;;;;;;;;;15.18;66.45;98335.22;1265675;23;637;-72
2022/11/17 01:06:53;;;;;;;;;;;;;;;15.17;66.29;98325.50;1261060;23;646;-73
2022/11/17 01:07:45;;;;;;;;;;;;;;;15.16;66.37;98350.66;1262118;23;781;-72
2022/11/17 01:08:36;;;;;;;;;;;;;;;15.15;66.13;98325.69;1267616;23;656;-73
2022/11/17 01:09:26;;;;;;;;;;;;;;;15.14;66.12;98318.66;1267459;23;638;-72
2022/11/17 01:10:17;;;;;;;;;;;;;;;15.15;66.32;98332.91;1267445;23;626;-72
2022/11/17 01:11:07;;;;;;;;;;;;;;;15.14;66.45;98324.03;1267545;23;682;-72
2022/11/17 01:11:58;;;;;;;;;;;;;;;15.14;66.25;98320.53;1265897;23;610;-72
2022/11/17 01:12:48;;;;;;;;;;;;;;;15.12;66.38;98320.72;1266165;23;662;-72
2022/11/17 01:13:38;;;;;;;;;;;;;;;15.15;66.33;98332.91;1267551;23;618;-72
2022/11/17 01:14:29;;;;;;;;;;;;;;;15.17;66.38;98328.19;1266012;23;630;-72
2022/11/17 01:15:20;;;;;;;;;;;;;;;15.15;66.23;98322.19;1265119;23;665;-72
2022/11/17 01:16:10;;;;;;;;;;;;;;;15.14;66.42;98320.53;1265636;23;701;-72
2022/11/17 01:17:01;;;;;;;;;;;;;;;15.13;66.60;98316.19;1265855;23;646;-72
2022/11/17 01:17:51;;;;;;;;;;;;;;;15.13;66.27;98308.13;1267573;23;633;-73
2022/11/17 01:18:41;;;;;;;;;;;;;;;15.14;66.32;98304.44;1261145;23;691;-73
2022/11/17 01:19:32;;;;;;;;;;;;;;;15.13;66.61;98308.13;1261891;23;636;-72
2022/11/17 01:20:22;;;;;;;;;;;;;;;15.14;66.48;98297.22;1268382;23;668;-73
2022/11/17 01:21:13;;;;;;;;;;;;;;;15.14;66.74;98296.38;1265947;23;711;-73
2022/11/17 01:22:03;;;;;;;;;;;;;;;15.11;66.51;98289.53;1265665;23;738;-73
2022/11/17 01:22:54;;;;;;;;;;;;;;;15.12;66.41;98287.69;1261061;23;664;-73
2022/11/17 01:23:44;;;;;;;;;;;;;;;15.12;66.82;98267.06;1261922;23;653;-73
2022/11/17 01:24:34;;;;;;;;;;;;;;;15.12;66.21;98260.84;1268341;23;635;-73
2022/11/17 01:25:25;;;;;;;;;;;;;;;15.13;65.97;98260.66;1265976;23;633;-73
2022/11/17 01:26:15;;;;;;;;;;;;;;;15.12;66.65;98283.16;1261072;23;626;-73
2022/11/17 01:27:06;;;;;;;;;;;;;;;15.10;66.56;98277.16;1261902;23;1230;-73
2022/11/17 01:27:56;;;;;;;;;;;;;;;15.11;66.54;98286.84;1268363;23;621;-73
2022/11/17 01:28:46;;;;;;;;;;;;;;;15.11;66.79;98275.28;1265867;23;662;-72
2022/11/17 01:29:37;;;;;;;;;;;;;;;15.10;66.28;98292.41;1265971;23;642;-72
2022/11/17 01:30:27;;;;;;;;;;;;;;;15.10;66.58;98292.41;1261265;23;677;-72
2022/11/17 01:31:18;;;;;;;;;;;;;;;15.09;66.61;98272.78;1261899;23;607;-72
2022/11/17 01:32:08;;;;;;;;;;;;;;;15.10;66.57;98279.81;1267551;23;554;-71
2022/11/17 01:32:59;;;;;;;;;;;;;;;15.10;66.91;98287.03;1265846;23;681;-71
2022/11/17 01:33:49;;;;;;;;;;;;;;;15.08;66.62;98295.28;1266144;23;645;-71
2022/11/17 01:34:40;;;;;;;;;;;;;;;15.08;66.66;98310.53;1265331;23;805;-72
2022/11/17 01:35:30;;;;;;;;;;;;;;;15.09;66.76;98304.16;1267536;23;628;-72
2022/11/17 01:36:20;;;;;;;;;;;;;;;15.11;66.87;98294.06;1265659;23;670;-72
2022/11/17 01:37:20;;;;;;;;;;;;;;;15.10;66.74;98295.09;1267546;23;683;-72
2022/11/17 01:38:10;;;;;;;;;;;;;;;15.10;67.07;98303.97;1266616;23;697;-72
2022/11/17 01:39:01;;;;;;;;;;;;;;;15.11;67.00;98310.16;1265818;23;711;-72
2022/11/17 01:39:51;;;;;;;;;;;;;;;15.11;66.80;98302.13;1265996;23;649;-73
2022/11/17 01:40:41;;;;;;;;;;;;;;;15.10;67.13;98308.50;1265628;23;867;-73
2022/11/17 01:41:32;;;;;;;;;;;;;;;15.08;66.97;98299.81;1265960;23;772;-73
2022/11/17 01:42:22;;;;;;;;;;;;;;;15.09;66.72;98280.00;1265639;23;622;-71
2022/11/17 01:43:13;;;;;;;;;;;;;;;15.10;66.88;98273.63;1265949;23;630;-71
2022/11/17 01:44:03;;;;;;;;;;;;;;;15.09;67.26;98275.47;1265954;23;684;-71
2022/11/17 01:44:54;;;;;;;;;;;;;;;15.09;67.08;98280.00;1267502;23;641;-71
2022/11/17 01:45:44;;;;;;;;;;;;;;;15.08;66.72;98264.94;1265882;23;634;-72
2022/11/17 01:46:34;;;;;;;;;;;;;;;15.07;66.99;98287.41;1265785;23;610;-72
2022/11/17 01:47:25;;;;;;;;;;;;;;;15.07;67.16;98288.25;1265943;23;615;-72
2022/11/17 01:48:15;;;;;;;;;;;;;;;15.07;67.21;98292.78;1265695;23;658;-72
2022/11/17 01:49:06;;;;;;;;;;;;;;;15.08;66.80;98291.75;1265311;23;615;-72
2022/11/17 01:49:56;;;;;;;;;;;;;;;15.08;67.29;98281.03;1265989;23;619;-71
2022/11/17 01:50:48;;;;;;;;;;;;;;;15.06;66.95;98270.50;1267459;23;634;-71
2022/11/17 01:51:38;;;;;;;;;;;;;;;15.08;67.04;98267.63;1265633;23;693;-72
2022/11/17 01:52:29;;;;;;;;;;;;;;;15.09;67.24;98264.75;1267465;23;580;-72
2022/11/17 01:53:19;;;;;;;;;;;;;;;15.09;66.86;98288.06;1260939;23;689;-72
2022/11/17 01:54:10;;;;;;;;;;;;;;;15.10;67.25;98281.69;1260267;23;641;-72
2022/11/17 01:55:00;;;;;;;;;;;;;;;15.10;66.92;98270.94;1267340;23;672;-73
2022/11/17 01:55:51;;;;;;;;;;;;;;;15.07;67.37;98271.31;1265632;23;670;-72
2022/11/17 01:56:41;;;;;;;;;;;;;;;15.08;67.21;98270.31;1265227;23;622;-72
2022/11/17 01:57:32;;;;;;;;;;;;;;;15.07;67.10;98265.97;1265723;23;622;-73
2022/11/17 01:58:22;;;;;;;;;;;;;;;15.06;67.44;98249.03;1265897;23;705;-73
2022/11/17 01:59:12;;;;;;;;;;;;;;;15.06;67.45;98258.94;1265772;23;708;-73
2022/11/17 02:00:03;;;;;;;;;;;;;;;15.06;67.29;98253.56;1265767;23;658;-73
2022/11/17 02:00:53;;;;;;;;;;;;;;;15.06;67.23;98258.94;1265699;23;614;-71
2022/11/17 02:01:56;;;;;;;;;;;;;;;15.06;67.23;98258.94;1267644;23;681;-71
2022/11/17 02:02:46;;;;;;;;;;;;;;;15.07;67.25;98266.78;1265347;23;1364;-71
2022/11/17 02:03:37;;;;;;;;;;;;;;;15.07;67.17;98260.59;1264930;23;649;-71
2022/11/17 02:04:27;;;;;;;;;;;;;;;15.05;67.42;98251.94;1265643;23;670;-72
2022/11/17 02:05:18;;;;;;;;;;;;;;;15.06;67.20;98256.25;1265649;23;1936;-73
2022/11/17 02:06:08;;;;;;;;;;;;;;;15.07;67.43;98247.19;1265928;23;678;-73
2022/11/17 02:06:58;;;;;;;;;;;;;;;15.07;67.63;98234.59;1265705;23;666;-72
2022/11/17 02:07:49;;;;;;;;;;;;;;;15.06;67.33;98237.47;1265874;23;619;-72
2022/11/17 02:08:39;;;;;;;;;;;;;;;15.05;67.37;98233.97;1267406;23;661;-72
2022/11/17 02:09:30;;;;;;;;;;;;;;;15.08;67.41;98228.22;1267381;23;636;-72
2022/11/17 02:10:20;;;;;;;;;;;;;;;15.07;67.27;98217.69;1266040;23;666;-73
2022/11/17 02:11:11;;;;;;;;;;;;;;;15.05;67.62;98207.16;1265659;23;642;-72
2022/11/17 02:12:01;;;;;;;;;;;;;;;15.07;67.46;98212.31;1267405;23;665;-72
2022/11/17 02:12:53;;;;;;;;;;;;;;;15.05;67.16;98220.56;1265608;23;614;-72
2022/11/17 02:13:43;;;;;;;;;;;;;;;15.07;67.64;98220.38;1266450;23;676;-73
2022/11/17 02:14:34;;;;;;;;;;;;;;;15.06;67.22;98226.75;1265692;23;614;-73
2022/11/17 02:15:24;;;;;;;;;;;;;;;15.05;67.71;98230.47;1265906;23;560;-73
2022/11/17 02:16:15;;;;;;;;;;;;;;;15.05;67.22;98219.75;1265756;23;665;-73
2022/11/17 02:17:05;;;;;;;;;;;;;;;15.06;67.48;98207.97;1265929;23;678;-73
2022/11/17 02:17:55;;;;;;;;;;;;;;;15.03;67.92;98208.38;1266879;23;661;-73
2022/11/17 02:18:46;;;;;;;;;;;;;;;15.02;67.82;98209.41;1265834;23;663;-73
2022/11/17 02:19:37;;;;;;;;;;;;;;;15.04;67.66;98210.03;1265761;23;598;-72
2022/11/17 02:20:27;;;;;;;;;;;;;;;15.02;67.68;98217.44;1265217;23;638;-73
2022/11/17 02:21:17;;;;;;;;;;;;;;;15.02;67.54;98212.91;1265642;23;665;-73
2022/11/17 02:22:08;;;;;;;;;;;;;;;15.04;67.65;98220.78;1265781;23;736;-73
2022/11/17 02:22:58;;;;;;;;;;;;;;;15.05;67.52;98214.38;1265572;23;713;-73
2022/11/17 02:23:49;;;;;;;;;;;;;;;15.04;67.66;98204.69;1267363;23;630;-73
2022/11/17 02:24:39;;;;;;;;;;;;;;;15.05;67.51;98206.34;1266181;23;661;-73
2022/11/17 02:25:30;;;;;;;;;;;;;;;15.05;67.63;98211.72;1265695;23;658;-73
2022/11/17 02:26:20;;;;;;;;;;;;;;;15.03;67.51;98214.56;1265851;23;517;-73
2022/11/17 02:27:11;;;;;;;;;;;;;;;15.04;67.69;98207.38;1264963;23;712;-73
2022/11/17 02:28:01;;;;;;;;;;;;;;;15.04;67.72;98204.69;1265550;23;619;-73
2022/11/17 02:28:52;;;;;;;;;;;;;;;15.05;67.57;98209.03;1267400;23;618;-73
2022/11/17 02:29:42;;;;;;;;;;;;;;;15.05;67.56;98214.38;1265941;23;627;-73
2022/11/17 02:30:32;;;;;;;;;;;;;;;15.04;67.45;98208.19;1265543;23;627;-73
2022/11/17 02:31:23;;;;;;;;;;;;;;;15.03;67.94;98205.69;1265855;23;689;-73
2022/11/17 02:32:13;;;;;;;;;;;;;;;15.03;67.94;98203.84;1260981;23;677;-73
2022/11/17 02:33:04;;;;;;;;;;;;;;;15.03;67.82;98208.38;1262515;23;656;-73
2022/11/17 02:33:54;;;;;;;;;;;;;;;15.03;68.16;98205.69;1267400;23;775;-73
2022/11/17 02:34:45;;;;;;;;;;;;;;;15.04;67.78;98208.19;1267402;23;708;-73
2022/11/17 02:35:35;;;;;;;;;;;;;;;15.05;68.07;98198.28;1265557;23;805;-72
2022/11/17 02:36:26;;;;;;;;;;;;;;;15.03;67.89;98208.38;1265764;23;701;-72
2022/11/17 02:37:16;;;;;;;;;;;;;;;15.03;67.94;98211.06;1265896;23;638;-73
2022/11/17 02:38:07;;;;;;;;;;;;;;;15.02;68.20;98204.03;1260892;23;673;-73
2022/11/17 02:38:57;;;;;;;;;;;;;;;15.00;68.14;98206.09;1261724;23;689;-72
2022/11/17 02:39:48;;;;;;;;;;;;;;;15.01;68.40;98202.38;1262725;23;625;-73
2022/11/17 02:40:38;;;;;;;;;;;;;;;15.02;67.78;98204.88;1260972;23;559;-73
2022/11/17 02:41:28;;;;;;;;;;;;;;;15.02;67.94;98204.03;1259364;23;598;-73
2022/11/17 02:42:19;;;;;;;;;;;;;;;15.01;68.19;98205.06;1261010;23;657;-73
2022/11/17 02:44:18;;;;;;;;;;;;;;;15.03;68.25;98200.34;1268301;23;598;-73
2022/11/17 02:45:09;;;;;;;;;;;;;;;15.03;67.82;98200.34;1265627;23;1877;-72
2022/11/17 02:45:59;;;;;;;;;;;;;;;15.04;68.24;98199.31;1265343;23;639;-72
2022/11/17 02:46:50;;;;;;;;;;;;;;;15.05;68.02;98193.72;1265017;23;666;-72
2022/11/17 02:47:40;;;;;;;;;;;;;;;15.04;68.01;98194.78;1267416;23;672;-72
2022/11/17 02:48:31;;;;;;;;;;;;;;;15.05;67.97;98193.72;1265675;23;666;-72
2022/11/17 02:49:21;;;;;;;;;;;;;;;15.02;68.19;98198.69;1264845;23;686;-73
2022/11/17 02:50:12;;;;;;;;;;;;;;;15.02;68.17;98199.50;1265734;23;650;-73
2022/11/17 02:51:02;;;;;;;;;;;;;;;15.07;67.98;98201.59;1266367;23;748;-73
2022/11/17 02:51:53;;;;;;;;;;;;;;;15.08;68.26;98196.03;1265690;23;636;-73
2022/11/17 02:52:43;;;;;;;;;;;;;;;15.07;68.16;98197.06;1265739;23;670;-73
2022/11/17 02:53:34;;;;;;;;;;;;;;;15.05;67.86;98192.94;1265699;23;623;-73
2022/11/17 02:54:24;;;;;;;;;;;;;;;15.05;68.33;98192.94;1265798;23;638;-72
2022/11/17 02:55:14;;;;;;;;;;;;;;;15.03;67.98;98200.34;1265607;23;614;-73
2022/11/17 02:56:05;;;;;;;;;;;;;;;15.02;68.57;98193.31;1265674;23;669;-73
2022/11/17 02:56:55;;;;;;;;;;;;;;;15.03;68.21;98189.59;1265537;23;574;-73
2022/11/17 02:57:46;;;;;;;;;;;;;;;15.02;68.28;98188.78;1265487;23;658;-73
2022/11/17 02:58:36;;;;;;;;;;;;;;;15.02;68.16;98179.91;1267376;23;629;-73
2022/11/17 02:59:27;;;;;;;;;;;;;;;15.01;68.23;98180.91;1260808;23;650;-72
2022/11/17 03:00:17;;;;;;;;;;;;;;;14.99;68.61;98188.31;1261807;23;641;-74
2022/11/17 03:01:07;;;;;;;;;;;;;;;14.99;68.54;98183.78;1267393;23;1153;-73
2022/11/17 03:01:58;;;;;;;;;;;;;;;15.00;68.53;98176.56;1265762;23;680;-72
2022/11/17 03:02:48;;;;;;;;;;;;;;;15.03;68.59;98178.88;1266061;23;1205;-73
2022/11/17 03:03:39;;;;;;;;;;;;;;;15.02;68.25;98174.53;1260971;23;635;-74
2022/11/17 03:04:30;;;;;;;;;;;;;;;15.02;68.42;98180.72;1261967;23;650;-72
2022/11/17 03:05:20;;;;;;;;;;;;;;;15.03;68.41;98171.66;1267199;23;1897;-73
2022/11/17 03:06:11;;;;;;;;;;;;;;;15.02;68.27;98172.69;1267287;23;629;-73
2022/11/17 03:07:01;;;;;;;;;;;;;;;15.03;68.20;98176.19;1265830;23;590;-73
2022/11/17 03:07:52;;;;;;;;;;;;;;;15.03;68.28;98173.53;1260910;23;610;-73
2022/11/17 03:08:42;;;;;;;;;;;;;;;15.03;68.53;98173.53;1261719;23;708;-74
2022/11/17 03:09:32;;;;;;;;;;;;;;;15.04;68.33;98175.19;1267284;23;646;-73
2022/11/17 03:10:23;;;;;;;;;;;;;;;15.03;68.75;98170.84;1265654;23;619;-73
2022/11/17 03:11:13;;;;;;;;;;;;;;;15.02;68.40;98169.16;1267292;23;628;-73
2022/11/17 03:12:04;;;;;;;;;;;;;;;15.02;68.53;98166.50;1265589;23;620;-73
2022/11/17 03:12:54;;;;;;;;;;;;;;;15.00;68.53;98173.91;1265723;23;641;-74
2022/11/17 03:13:45;;;;;;;;;;;;;;;15.00;68.51;98164.00;1264827;23;615;-74
2022/11/17 03:14:35;;;;;;;;;;;;;;;15.03;68.55;98173.53;1265825;23;678;-74
2022/11/17 03:15:26;;;;;;;;;;;;;;;15.03;68.59;98170.84;1267370;23;692;-74
2022/11/17 03:16:16;;;;;;;;;;;;;;;15.02;68.31;98158.44;1265763;23;685;-74
2022/11/17 03:17:06;;;;;;;;;;;;;;;15.01;68.77;98171.03;1265403;23;665;-74
2022/11/17 03:17:58;;;;;;;;;;;;;;;15.01;68.48;98176.38;1260877;23;692;-74
2022/11/17 03:18:48;;;;;;;;;;;;;;;15.02;68.32;98163.81;1261807;23;617;-74
2022/11/17 03:19:38;;;;;;;;;;;;;;;15.01;68.50;98160.31;1267451;23;665;-74
2022/11/17 03:20:29;;;;;;;;;;;;;;;15.04;68.49;98169.81;1260855;23;649;-74
2022/11/17 03:21:19;;;;;;;;;;;;;;;15.02;68.55;98163.81;1261822;23;720;-73
2022/11/17 03:22:10;;;;;;;;;;;;;;;15.01;68.64;98171.03;1267300;23;664;-74
2022/11/17 03:23:00;;;;;;;;;;;;;;;15.02;68.29;98159.28;1265884;23;703;-74
2022/11/17 03:23:51;;;;;;;;;;;;;;;15.02;68.87;98161.13;1265565;23;646;-73
2022/11/17 03:24:41;;;;;;;;;;;;;;;15.02;68.69;98161.97;1265657;23;629;-73
2022/11/17 03:25:31;;;;;;;;;;;;;;;15.01;68.67;98154.09;1265498;23;607;-73
2022/11/17 03:26:22;;;;;;;;;;;;;;;15.00;68.71;98157.81;1260881;23;657;-73
2022/11/17 03:27:14;;;;;;;;;;;;;;;15.00;68.58;98149.75;1260067;23;704;-73
2022/11/17 03:28:04;;;;;;;;;;;;;;;14.99;68.67;98150.78;1267297;23;661;-72
2022/11/17 03:28:55;;;;;;;;;;;;;;;14.98;68.24;98151.81;1265553;23;646;-73
2022/11/17 03:29:45;;;;;;;;;;;;;;;14.99;68.80;98145.41;1265557;23;684;-73
2022/11/17 03:30:35;;;;;;;;;;;;;;;15.00;68.28;98137.19;1260322;23;622;-74
2022/11/17 03:31:26;;;;;;;;;;;;;;;15.00;68.63;98160.50;1261801;23;665;-74
2022/11/17 03:32:16;;;;;;;;;;;;;;;15.03;68.55;98157.44;1267395;23;657;-73
2022/11/17 03:33:07;;;;;;;;;;;;;;;15.02;68.32;98148.56;1265444;23;642;-73
2022/11/17 03:33:57;;;;;;;;;;;;;;;15.01;68.71;98146.88;1265727;23;622;-74
2022/11/17 03:34:48;;;;;;;;;;;;;;;15.00;68.70;98142.53;1266575;23;634;-72
2022/11/17 03:35:38;;;;;;;;;;;;;;;14.99;68.80;98146.25;1265904;23;740;-74
2022/11/17 03:36:28;;;;;;;;;;;;;;;15.01;68.74;98138.84;1265566;23;658;-73
2022/11/17 03:37:19;;;;;;;;;;;;;;;15.01;68.80;98154.94;1265754;23;768;-73
2022/11/17 03:38:09;;;;;;;;;;;;;;;15.01;68.85;98148.75;1265786;23;653;-74
2022/11/17 03:39:00;;;;;;;;;;;;;;;15.00;68.88;98141.72;1265668;23;603;-73
2022/11/17 03:39:50;;;;;;;;;;;;;;;15.00;69.20;98141.72;1265825;23;525;-74
2022/11/17 03:40:41;;;;;;;;;;;;;;;15.00;69.71;98139.88;1265632;23;618;-73
2022/11/17 03:41:31;;;;;;;;;;;;;;;15.00;69.83;98144.41;1265731;23;713;-73
2022/11/17 03:42:21;;;;;;;;;;;;;;;15.00;69.88;98139.88;1266417;23;895;-72
2022/11/17 03:43:12;;;;;;;;;;;;;;;14.99;70.12;98146.25;1260978;23;610;-73
2022/11/17 03:44:02;;;;;;;;;;;;;;;14.99;70.46;98140.88;1261750;23;661;-73
2022/11/17 03:44:53;;;;;;;;;;;;;;;15.00;70.45;98131.00;1266707;23;645;-73
2022/11/17 03:45:43;;;;;;;;;;;;;;;15.00;70.23;98136.34;1265695;23;624;-73
2022/11/17 03:46:34;;;;;;;;;;;;;;;15.00;70.81;98131.00;1265470;23;717;-73
2022/11/17 03:47:24;;;;;;;;;;;;;;;14.98;70.95;98139.22;1265634;23;634;-73
2022/11/17 03:48:14;;;;;;;;;;;;;;;15.00;70.58;98136.34;1266368;23;660;-73
2022/11/17 03:49:05;;;;;;;;;;;;;;;14.99;70.87;98135.53;1265311;23;661;-73
2022/11/17 03:49:55;;;;;;;;;;;;;;;14.99;70.68;98135.53;1265435;23;662;-73
2022/11/17 03:50:46;;;;;;;;;;;;;;;14.98;70.83;98139.22;1265481;23;630;-73
2022/11/17 03:51:37;;;;;;;;;;;;;;;14.98;71.00;98127.66;1265653;23;665;-73
2022/11/17 03:52:28;;;;;;;;;;;;;;;15.00;71.15;98133.66;1264821;23;679;-73
2022/11/17 03:53:18;;;;;;;;;;;;;;;15.00;71.23;98137.19;1266354;23;799;-74
2022/11/17 03:54:09;;;;;;;;;;;;;;;15.01;70.84;98133.47;1265566;23;610;-74
2022/11/17 03:54:59;;;;;;;;;;;;;;;14.99;71.00;98132.84;1265704;23;614;-74
2022/11/17 03:55:50;;;;;;;;;;;;;;;15.00;71.07;98131.00;1265480;23;653;-73
2022/11/17 03:56:41;;;;;;;;;;;;;;;15.01;71.15;98127.28;1265757;23;673;-74
2022/11/17 03:57:31;;;;;;;;;;;;;;;15.01;71.30;98128.13;1264855;23;685;-73
2022/11/17 03:58:21;;;;;;;;;;;;;;;15.01;71.15;98128.13;1265464;23;627;-73
2022/11/17 03:59:12;;;;;;;;;;;;;;;14.99;71.25;98134.69;1267149;23;619;-73
2022/11/17 04:00:02;;;;;;;;;;;;;;;15.00;71.28;98131.81;1265450;23;697;-73
2022/11/17 04:00:53;;;;;;;;;;;;;;;15.00;71.36;98118.41;1265611;23;637;-73
2022/11/17 04:01:44;;;;;;;;;;;;;;;15.00;71.07;98122.94;1265145;23;668;-73
2022/11/17 04:02:34;;;;;;;;;;;;;;;15.00;70.97;98120.25;1266952;23;614;-73
2022/11/17 04:03:24;;;;;;;;;;;;;;;14.99;70.95;98119.44;1265235;23;686;-73
2022/11/17 04:04:15;;;;;;;;;;;;;;;14.98;71.21;98116.94;1267226;23;801;-73
2022/11/17 04:05:05;;;;;;;;;;;;;;;15.00;71.00;98115.72;1260290;23;2037;-73
2022/11/17 04:05:56;;;;;;;;;;;;;;;15.01;71.55;98113.88;1261728;23;653;-73
2022/11/17 04:06:46;;;;;;;;;;;;;;;14.99;71.53;98113.25;1260669;23;749;-73
2022/11/17 04:07:37;;;;;;;;;;;;;;;15.00;71.50;98115.72;1259103;23;701;-73
2022/11/17 04:08:29;;;;;;;;;;;;;;;15.00;71.37;98106.84;1266331;23;642;-73
2022/11/17 04:09:20;;;;;;;;;;;;;;;14.99;71.32;98107.88;1266343;23;622;-73
2022/11/17 04:10:10;;;;;;;;;;;;;;;15.00;70.94;98115.72;1260698;23;621;-73
2022/11/17 04:15:56;;;;;;;;;;;;;;;15.00;71.14;98106.84;1268000;23;625;-73
2022/11/17 04:16:46;;;;;;;;;;;;;;;14.99;71.08;98107.88;1265710;23;618;-74
2022/11/17 04:17:37;;;;;;;;;;;;;;;15.00;71.17;98107.69;1265377;23;661;-73
2022/11/17 04:18:27;;;;;;;;;;;;;;;15.00;70.96;98112.22;1265647;23;704;-73
2022/11/17 04:19:17;;;;;;;;;;;;;;;14.96;71.22;98098.38;1265391;23;618;-72
2022/11/17 04:20:08;;;;;;;;;;;;;;;14.98;71.22;98101.69;1265701;23;678;-72
2022/11/17 04:20:58;;;;;;;;;;;;;;;14.97;71.26;98100.03;1265651;23;622;-72
2022/11/17 04:21:49;;;;;;;;;;;;;;;14.98;70.91;98098.16;1265501;23;611;-72
2022/11/17 04:22:39;;;;;;;;;;;;;;;14.97;70.96;98091.97;1265718;23;673;-74
2022/11/17 04:23:30;;;;;;;;;;;;;;;14.99;70.95;98097.97;1265507;23;666;-72
2022/11/17 04:24:20;;;;;;;;;;;;;;;15.01;71.12;98093.25;1265499;23;622;-72
2022/11/17 04:28:35;;;;;;;;;;;;;;;15.00;71.21;98104.16;1265246;23;1889;-72
2022/11/17 04:28:41;;;;;;;;;;;;;;;15.00;70.82;98088.09;1268007;23;618;-73
2022/11/17 04:29:33;;;;;;;;;;;;;;;14.99;71.20;98086.41;1265989;23;603;-73
2022/11/17 04:30:24;;;;;;;;;;;;;;;15.00;71.16;98072.00;1265889;23;665;-72
2022/11/17 04:31:14;;;;;;;;;;;;;;;14.99;70.65;98081.88;1265827;23;677;-72
2022/11/17 04:32:04;;;;;;;;;;;;;;;14.98;70.81;98077.53;1265699;23;658;-72
2022/11/17 04:32:55;;;;;;;;;;;;;;;14.99;70.78;98070.34;1265928;23;650;-73
2022/11/17 04:33:45;;;;;;;;;;;;;;;15.00;70.78;98080.03;1267623;23;639;-73
2022/11/17 04:34:39;;;;;;;;;;;;;;;14.99;70.68;98075.69;1265903;23;606;-73
2022/11/17 04:35:30;;;;;;;;;;;;;;;14.99;70.76;98073.00;1265747;23;611;-73
2022/11/17 04:36:20;;;;;;;;;;;;;;;14.98;70.87;98079.41;1265956;23;673;-73
2022/11/17 04:37:16;;;;;;;;;;;;;;;14.96;70.99;98078.75;1267585;23;594;-74
2022/11/17 04:38:06;;;;;;;;;;;;;;;14.96;70.80;98068.88;1261204;23;762;-73
2022/11/17 04:38:56;;;;;;;;;;;;;;;14.95;70.79;98067.19;1262073;23;696;-73
2022/11/17 04:39:47;;;;;;;;;;;;;;;14.98;70.57;98055.25;1267566;23;670;-72
2022/11/17 04:41:52;;;;;;;;;;;;;;;14.97;71.30;98061.66;1265956;23;614;-73
2022/11/17 04:41:56;;;;;;;;;;;;;;;14.98;70.63;98072.19;1267549;23;642;-73
2022/11/17 04:42:46;;;;;;;;;;;;;;;14.97;70.69;98062.47;1264560;23;650;-73
2022/11/17 04:43:37;;;;;;;;;;;;;;;14.97;70.68;98069.69;1267562;23;614;-73
2022/11/17 04:44:27;;;;;;;;;;;;;;;14.97;70.68;98065.16;1265457;23;783;-73
2022/11/17 04:45:18;;;;;;;;;;;;;;;14.97;70.76;98058.97;1265657;23;1888;-73
2022/11/17 04:46:08;;;;;;;;;;;;;;;14.97;70.82;98056.28;1265955;23;717;-73
2022/11/17 04:47:01;;;;;;;;;;;;;;;14.97;70.66;98058.97;1265787;23;637;-73
2022/11/17 04:47:52;;;;;;;;;;;;;;;14.96;70.78;98060.00;1265100;23;674;-73
2022/11/17 04:48:42;;;;;;;;;;;;;;;14.95;70.53;98059.16;1265988;23;611;-73
2022/11/17 04:49:33;;;;;;;;;;;;;;;14.95;70.62;98053.78;1265913;23;619;-73
2022/11/17 04:50:23;;;;;;;;;;;;;;;14.96;70.99;98057.31;1266017;23;621;-73